IGO115 VEBD-VNKT
Flight info
| Callsign | IGO115 |
|---|---|
| Flight time | 0h 38m |
| Altitude | 30000 |
| Route | KIMTI KMTI2R |
| Aircraft | A320/M-SDE3FGHIRWY/LB1 |
Departure
| Time | 2026-05-07 15:20 |
|---|---|
| Airport | Bagdogra Airport (VEBD) |
Arrival
| Time | 2026-05-07 15:58 |
|---|---|
| Airport | Tribhuvan International Airport (VNKT) |
| Time | Latitude | Longitude | Altitude | Speed | Heading |
|---|---|---|---|---|---|
| 2026-05-07 15:10 | 26.68395 | 88.32643 | 428 ft | 0 kts | 262° |
| 2026-05-07 15:12 | 26.68396 | 88.32647 | 428 ft | 3 kts | 261° |
| 2026-05-07 15:13 | 26.68404 | 88.32671 | 419 ft | 4 kts | 207° |
| 2026-05-07 15:13 | 26.68416 | 88.32676 | 418 ft | 0 kts | 182° |
| 2026-05-07 15:16 | 26.68407 | 88.32675 | 425 ft | 3 kts | 182° |
| 2026-05-07 15:16 | 26.68375 | 88.32675 | 421 ft | 6 kts | 179° |
| 2026-05-07 15:16 | 26.68353 | 88.32720 | 427 ft | 9 kts | 92° |
| 2026-05-07 15:17 | 26.68351 | 88.32776 | 419 ft | 12 kts | 91° |
| 2026-05-07 15:17 | 26.68251 | 88.32811 | 421 ft | 15 kts | 181° |
| 2026-05-07 15:17 | 26.68130 | 88.32807 | 417 ft | 19 kts | 181° |
| 2026-05-07 15:17 | 26.67981 | 88.32801 | 419 ft | 24 kts | 182° |
| 2026-05-07 15:18 | 26.67803 | 88.32796 | 416 ft | 27 kts | 181° |
| 2026-05-07 15:18 | 26.67600 | 88.32788 | 415 ft | 31 kts | 181° |
| 2026-05-07 15:18 | 26.67481 | 88.32766 | 414 ft | 1 kts | 203° |
| 2026-05-07 15:18 | 26.67478 | 88.32772 | 415 ft | 1 kts | 129° |
| 2026-05-07 15:19 | 26.67486 | 88.32781 | 414 ft | 4 kts | 39° |
| 2026-05-07 15:19 | 26.67519 | 88.32786 | 415 ft | 0 kts | 0° |
| 2026-05-07 15:19 | 26.67536 | 88.32787 | 413 ft | 12 kts | 4° |
| 2026-05-07 15:19 | 26.67697 | 88.32794 | 415 ft | 66 kts | 0° |
| 2026-05-07 15:20 | 26.68836 | 88.32825 | 499 ft | 164 kts | 2° |
| 2026-05-07 15:20 | 26.69634 | 88.32863 | 856 ft | 183 kts | 1° |
| 2026-05-07 15:20 | 26.70886 | 88.32510 | 1708 ft | 194 kts | 324° |
| 2026-05-07 15:20 | 26.71602 | 88.31289 | 2693 ft | 181 kts | 285° |
| 2026-05-07 15:21 | 26.71996 | 88.29965 | 3409 ft | 178 kts | 291° |
| 2026-05-07 15:21 | 26.72480 | 88.28723 | 4137 ft | 170 kts | 291° |
| 2026-05-07 15:21 | 26.72855 | 88.27458 | 4708 ft | 175 kts | 284° |
| 2026-05-07 15:21 | 26.73096 | 88.26075 | 5088 ft | 190 kts | 277° |
| 2026-05-07 15:22 | 26.73281 | 88.24524 | 5368 ft | 213 kts | 279° |
| 2026-05-07 15:22 | 26.73549 | 88.22793 | 5702 ft | 238 kts | 280° |
| 2026-05-07 15:22 | 26.73862 | 88.20874 | 6170 ft | 263 kts | 280° |
| 2026-05-07 15:22 | 26.74199 | 88.18806 | 6827 ft | 275 kts | 280° |
| 2026-05-07 15:23 | 26.74539 | 88.16682 | 7713 ft | 279 kts | 280° |
| 2026-05-07 15:23 | 26.74878 | 88.14538 | 8635 ft | 281 kts | 280° |
| 2026-05-07 15:23 | 26.75217 | 88.12379 | 9572 ft | 282 kts | 279° |
| 2026-05-07 15:23 | 26.75554 | 88.10197 | 10279 ft | 292 kts | 279° |
| 2026-05-07 15:24 | 26.75911 | 88.07867 | 10547 ft | 314 kts | 279° |
| 2026-05-07 15:24 | 26.76285 | 88.05414 | 11107 ft | 324 kts | 279° |
| 2026-05-07 15:24 | 26.76663 | 88.02919 | 11852 ft | 327 kts | 279° |
| 2026-05-07 15:24 | 26.77045 | 88.00395 | 12623 ft | 331 kts | 279° |
| 2026-05-07 15:25 | 26.77432 | 87.97848 | 13388 ft | 334 kts | 279° |
| 2026-05-07 15:25 | 26.77823 | 87.95277 | 14086 ft | 337 kts | 279° |
| 2026-05-07 15:25 | 26.78217 | 87.92680 | 14749 ft | 340 kts | 279° |
| 2026-05-07 15:25 | 26.78618 | 87.90057 | 15400 ft | 343 kts | 279° |
| 2026-05-07 15:26 | 26.79021 | 87.87411 | 16049 ft | 346 kts | 279° |
| 2026-05-07 15:26 | 26.79419 | 87.84779 | 16683 ft | 349 kts | 278° |
| 2026-05-07 15:26 | 26.79824 | 87.82083 | 17322 ft | 352 kts | 279° |
| 2026-05-07 15:26 | 26.80230 | 87.79367 | 17991 ft | 356 kts | 279° |
| 2026-05-07 15:27 | 26.80640 | 87.76626 | 18547 ft | 359 kts | 278° |
| 2026-05-07 15:27 | 26.81052 | 87.73857 | 19100 ft | 362 kts | 278° |
| 2026-05-07 15:27 | 26.81471 | 87.71065 | 19669 ft | 365 kts | 278° |
| 2026-05-07 15:27 | 26.81894 | 87.68245 | 20241 ft | 369 kts | 278° |
| 2026-05-07 15:28 | 26.82323 | 87.65402 | 20801 ft | 372 kts | 278° |
| 2026-05-07 15:28 | 26.82755 | 87.62532 | 21343 ft | 376 kts | 278° |
| 2026-05-07 15:28 | 26.83188 | 87.59633 | 21891 ft | 379 kts | 278° |
| 2026-05-07 15:28 | 26.83624 | 87.56712 | 22444 ft | 382 kts | 278° |
| 2026-05-07 15:29 | 26.84065 | 87.53758 | 22986 ft | 386 kts | 278° |
| 2026-05-07 15:29 | 26.84507 | 87.50779 | 23520 ft | 390 kts | 278° |
| 2026-05-07 15:29 | 26.84954 | 87.47771 | 24007 ft | 393 kts | 278° |
| 2026-05-07 15:29 | 26.85405 | 87.44742 | 24477 ft | 396 kts | 278° |
| 2026-05-07 15:30 | 26.85857 | 87.41689 | 24940 ft | 398 kts | 278° |
| 2026-05-07 15:30 | 26.86308 | 87.38623 | 25378 ft | 400 kts | 278° |
| 2026-05-07 15:30 | 26.86762 | 87.35533 | 25784 ft | 403 kts | 278° |
| 2026-05-07 15:30 | 26.87218 | 87.32433 | 25918 ft | 404 kts | 278° |
| 2026-05-07 15:31 | 26.87676 | 87.29328 | 25947 ft | 404 kts | 278° |
| 2026-05-07 15:31 | 26.88132 | 87.26227 | 25947 ft | 404 kts | 278° |
| 2026-05-07 15:31 | 26.88586 | 87.23122 | 25951 ft | 404 kts | 278° |
| 2026-05-07 15:31 | 26.89040 | 87.20017 | 25950 ft | 404 kts | 278° |
| 2026-05-07 15:32 | 26.89494 | 87.16914 | 25952 ft | 404 kts | 278° |
| 2026-05-07 15:32 | 26.89947 | 87.13809 | 25950 ft | 404 kts | 278° |
| 2026-05-07 15:32 | 26.90393 | 87.10748 | 25950 ft | 404 kts | 278° |
| 2026-05-07 15:32 | 26.90844 | 87.07647 | 25947 ft | 403 kts | 278° |
| 2026-05-07 15:33 | 26.91296 | 87.04546 | 25950 ft | 403 kts | 278° |
| 2026-05-07 15:33 | 26.91745 | 87.01442 | 25949 ft | 403 kts | 278° |
| 2026-05-07 15:33 | 26.92194 | 86.98344 | 25951 ft | 403 kts | 278° |
| 2026-05-07 15:33 | 26.92643 | 86.95243 | 25950 ft | 403 kts | 278° |
| 2026-05-07 15:34 | 26.93089 | 86.92148 | 25952 ft | 402 kts | 278° |
| 2026-05-07 15:34 | 26.93534 | 86.89050 | 25950 ft | 403 kts | 278° |
| 2026-05-07 15:34 | 26.93976 | 86.85956 | 25952 ft | 402 kts | 278° |
| 2026-05-07 15:34 | 26.94420 | 86.82865 | 25950 ft | 402 kts | 278° |
| 2026-05-07 15:35 | 26.94866 | 86.79770 | 25949 ft | 402 kts | 278° |
| 2026-05-07 15:35 | 26.95310 | 86.76671 | 25949 ft | 403 kts | 278° |
| 2026-05-07 15:35 | 26.95753 | 86.73574 | 25984 ft | 403 kts | 278° |
| 2026-05-07 15:35 | 26.96194 | 86.70479 | 25984 ft | 402 kts | 278° |
| 2026-05-07 15:36 | 26.96635 | 86.67382 | 25982 ft | 402 kts | 278° |
| 2026-05-07 15:36 | 26.97074 | 86.64283 | 25983 ft | 403 kts | 278° |
| 2026-05-07 15:36 | 26.97512 | 86.61184 | 25972 ft | 402 kts | 278° |
| 2026-05-07 15:36 | 26.97952 | 86.58089 | 25974 ft | 402 kts | 278° |
| 2026-05-07 15:37 | 26.98390 | 86.54990 | 25972 ft | 403 kts | 278° |
| 2026-05-07 15:37 | 26.98828 | 86.51884 | 25972 ft | 404 kts | 278° |
| 2026-05-07 15:37 | 26.99266 | 86.48774 | 25967 ft | 404 kts | 278° |
| 2026-05-07 15:37 | 26.99705 | 86.45659 | 25966 ft | 404 kts | 278° |
| 2026-05-07 15:38 | 27.00145 | 86.42546 | 25967 ft | 404 kts | 278° |
| 2026-05-07 15:38 | 27.00583 | 86.39432 | 25966 ft | 404 kts | 278° |
| 2026-05-07 15:38 | 27.01018 | 86.36321 | 25967 ft | 404 kts | 278° |
| 2026-05-07 15:38 | 27.01452 | 86.33207 | 25958 ft | 404 kts | 278° |
| 2026-05-07 15:39 | 27.01887 | 86.30095 | 25958 ft | 404 kts | 278° |
| 2026-05-07 15:39 | 27.02324 | 86.26984 | 25959 ft | 404 kts | 278° |
| 2026-05-07 15:39 | 27.02761 | 86.23872 | 25958 ft | 404 kts | 278° |
| 2026-05-07 15:39 | 27.03195 | 86.20758 | 25959 ft | 404 kts | 278° |
| 2026-05-07 15:40 | 27.03627 | 86.17646 | 25956 ft | 404 kts | 278° |
| 2026-05-07 15:40 | 27.04053 | 86.14576 | 25952 ft | 403 kts | 278° |
| 2026-05-07 15:40 | 27.04480 | 86.11487 | 25919 ft | 396 kts | 278° |
| 2026-05-07 15:40 | 27.04894 | 86.08472 | 25681 ft | 386 kts | 278° |
| 2026-05-07 15:41 | 27.05298 | 86.05526 | 25449 ft | 379 kts | 278° |
| 2026-05-07 15:41 | 27.05695 | 86.02634 | 25244 ft | 372 kts | 278° |
| 2026-05-07 15:41 | 27.06087 | 85.99794 | 25013 ft | 366 kts | 278° |
| 2026-05-07 15:41 | 27.06475 | 85.96985 | 24787 ft | 363 kts | 278° |
| 2026-05-07 15:42 | 27.06861 | 85.94188 | 24558 ft | 362 kts | 278° |
| 2026-05-07 15:42 | 27.07242 | 85.91404 | 24331 ft | 360 kts | 278° |
| 2026-05-07 15:42 | 27.07620 | 85.88633 | 24108 ft | 359 kts | 278° |
| 2026-05-07 15:42 | 27.07997 | 85.85869 | 23879 ft | 358 kts | 278° |
| 2026-05-07 15:43 | 27.08370 | 85.83111 | 23660 ft | 357 kts | 278° |
| 2026-05-07 15:43 | 27.08614 | 85.81291 | 23508 ft | 356 kts | 278° |
| 2026-05-07 15:43 | 27.09105 | 85.77627 | 23153 ft | 354 kts | 278° |
| 2026-05-07 15:43 | 27.09474 | 85.74902 | 22891 ft | 352 kts | 278° |
| 2026-05-07 15:44 | 27.09842 | 85.72188 | 22629 ft | 351 kts | 278° |
| 2026-05-07 15:44 | 27.10207 | 85.69488 | 22372 ft | 349 kts | 278° |
| 2026-05-07 15:44 | 27.10570 | 85.66798 | 22116 ft | 348 kts | 278° |
| 2026-05-07 15:44 | 27.10932 | 85.64116 | 21870 ft | 348 kts | 278° |
| 2026-05-07 15:45 | 27.11292 | 85.61430 | 21622 ft | 348 kts | 278° |
| 2026-05-07 15:45 | 27.11646 | 85.58752 | 21381 ft | 346 kts | 277° |
| 2026-05-07 15:45 | 27.11754 | 85.56060 | 21125 ft | 345 kts | 270° |
| 2026-05-07 15:45 | 27.11758 | 85.53372 | 20881 ft | 344 kts | 270° |
| 2026-05-07 15:46 | 27.11765 | 85.48059 | 20401 ft | 341 kts | 270° |
| 2026-05-07 15:46 | 27.11767 | 85.45418 | 20085 ft | 336 kts | 270° |
| 2026-05-07 15:46 | 27.11768 | 85.42799 | 19662 ft | 335 kts | 270° |
| 2026-05-07 15:47 | 27.11769 | 85.40192 | 19228 ft | 334 kts | 270° |
| 2026-05-07 15:47 | 27.11770 | 85.37592 | 18796 ft | 333 kts | 270° |
| 2026-05-07 15:47 | 27.11771 | 85.35000 | 18365 ft | 332 kts | 270° |
| 2026-05-07 15:47 | 27.11772 | 85.32412 | 17890 ft | 331 kts | 270° |
| 2026-05-07 15:48 | 27.11903 | 85.29853 | 17507 ft | 327 kts | 279° |
| 2026-05-07 15:48 | 27.12426 | 85.27394 | 17151 ft | 322 kts | 288° |
| 2026-05-07 15:48 | 27.13291 | 85.25091 | 16790 ft | 319 kts | 297° |
| 2026-05-07 15:48 | 27.14461 | 85.22989 | 16445 ft | 317 kts | 306° |
| 2026-05-07 15:49 | 27.15907 | 85.21135 | 16119 ft | 315 kts | 315° |
| 2026-05-07 15:49 | 27.17591 | 85.19574 | 15766 ft | 314 kts | 324° |
| 2026-05-07 15:49 | 27.19480 | 85.18348 | 15421 ft | 314 kts | 333° |
| 2026-05-07 15:49 | 27.21519 | 85.17488 | 15073 ft | 314 kts | 342° |
| 2026-05-07 15:50 | 27.23662 | 85.17017 | 14729 ft | 314 kts | 352° |
| 2026-05-07 15:50 | 27.25844 | 85.16948 | 14382 ft | 315 kts | 2° |
| 2026-05-07 15:50 | 27.28012 | 85.17280 | 14067 ft | 315 kts | 11° |
| 2026-05-07 15:50 | 27.30103 | 85.18003 | 13681 ft | 315 kts | 20° |
| 2026-05-07 15:51 | 27.32110 | 85.18918 | 13190 ft | 306 kts | 20° |
| 2026-05-07 15:51 | 27.34051 | 85.19799 | 12801 ft | 295 kts | 20° |
| 2026-05-07 15:51 | 27.35923 | 85.20647 | 12433 ft | 285 kts | 20° |
| 2026-05-07 15:51 | 27.37735 | 85.21468 | 12078 ft | 276 kts | 20° |
| 2026-05-07 15:52 | 27.39491 | 85.22266 | 11749 ft | 268 kts | 20° |
| 2026-05-07 15:52 | 27.41195 | 85.23040 | 11407 ft | 261 kts | 21° |
| 2026-05-07 15:52 | 27.42857 | 85.23789 | 11063 ft | 254 kts | 21° |
| 2026-05-07 15:52 | 27.44478 | 85.24514 | 10724 ft | 248 kts | 20° |
| 2026-05-07 15:53 | 27.46061 | 85.25219 | 10397 ft | 241 kts | 20° |
| 2026-05-07 15:53 | 27.47599 | 85.25906 | 10079 ft | 235 kts | 21° |
| 2026-05-07 15:53 | 27.49094 | 85.26580 | 9761 ft | 226 kts | 21° |
| 2026-05-07 15:53 | 27.50491 | 85.27215 | 9469 ft | 208 kts | 21° |
| 2026-05-07 15:54 | 27.51774 | 85.27795 | 9211 ft | 189 kts | 21° |
| 2026-05-07 15:54 | 27.52946 | 85.28323 | 8970 ft | 176 kts | 21° |
| 2026-05-07 15:54 | 27.54046 | 85.28818 | 8722 ft | 167 kts | 21° |
| 2026-05-07 15:54 | 27.55115 | 85.29303 | 8294 ft | 163 kts | 21° |
| 2026-05-07 15:55 | 27.56151 | 85.29774 | 7916 ft | 158 kts | 22° |
| 2026-05-07 15:55 | 27.57163 | 85.30233 | 7538 ft | 156 kts | 22° |
| 2026-05-07 15:55 | 27.58164 | 85.30688 | 7178 ft | 154 kts | 22° |
| 2026-05-07 15:55 | 27.59161 | 85.31139 | 6769 ft | 154 kts | 23° |
| 2026-05-07 15:56 | 27.60150 | 85.31596 | 6427 ft | 153 kts | 24° |
| 2026-05-07 15:56 | 27.61137 | 85.32038 | 6080 ft | 152 kts | 21° |
| 2026-05-07 15:56 | 27.62128 | 85.32445 | 5755 ft | 151 kts | 21° |
| 2026-05-07 15:56 | 27.63109 | 85.32867 | 5447 ft | 150 kts | 22° |
| 2026-05-07 15:57 | 27.64067 | 85.33323 | 5204 ft | 150 kts | 23° |
| 2026-05-07 15:57 | 27.65015 | 85.33767 | 4968 ft | 149 kts | 22° |
| 2026-05-07 15:57 | 27.65981 | 85.34198 | 4842 ft | 150 kts | 22° |
| 2026-05-07 15:57 | 27.66954 | 85.34641 | 4618 ft | 151 kts | 25° |
| 2026-05-07 15:58 | 27.67921 | 85.35102 | 4454 ft | 151 kts | 24° |
| 2026-05-07 15:58 | 27.68885 | 85.35553 | 4348 ft | 142 kts | 22° |
| 2026-05-07 15:58 | 27.69645 | 85.35908 | 4392 ft | 94 kts | 22° |
| 2026-05-07 15:58 | 27.70091 | 85.36111 | 4402 ft | 43 kts | 21° |
| 2026-05-07 15:59 | 27.70186 | 85.36101 | 4405 ft | 10 kts | 325° |
| 2026-05-07 15:59 | 27.70187 | 85.36038 | 4403 ft | 8 kts | 219° |
| 2026-05-07 15:59 | 27.70120 | 85.36005 | 4400 ft | 13 kts | 201° |
| 2026-05-07 15:59 | 27.70021 | 85.35960 | 4397 ft | 17 kts | 202° |
| 2026-05-07 16:00 | 27.69917 | 85.35903 | 4395 ft | 12 kts | 232° |
| 2026-05-07 16:00 | 27.69929 | 85.35834 | 4389 ft | 8 kts | 292° |
| 2026-05-07 16:00 | 27.69937 | 85.35809 | 4388 ft | 0 kts | 292° |